Terminal Aerodrome Forecast
Issued by NWS Tuscon, AZ

Home | Current Version | Previous Version | Text Only | Print | Product List | Glossary On
Versions: 1 2 3 4 5 6 7 8 9 10 11 12 13 14 15
024
FTUS45 KTWC 210538
TAFDUG
TAF
KDUG 210538Z 2106/2206 21017G27KT P6SM RA SCT025 OVC035
     FM210900 24028G38KT 4SM RA BKN020 OVC030
     FM211300 26020G30KT P6SM -RA BKN025 OVC035
     FM211700 28025G35KT P6SM -SHRA BKN030 OVC050
     FM220100 29015G23KT P6SM SCT035 BKN050=

USA.gov is the U.S. government's official web portal to all federal, state and local government web resources and services.